sensor_id;sensor_type;location;lat;lon;timestamp;temperature;humidity
20690;DHT22;10504;48.762;8.996;2022-08-03T00:01:16;18.70;99.90
20690;DHT22;10504;48.762;8.996;2022-08-03T00:03:42;18.60;99.90
20690;DHT22;10504;48.762;8.996;2022-08-03T00:06:08;18.60;99.90
20690;DHT22;10504;48.762;8.996;2022-08-03T00:08:33;18.60;99.90
20690;DHT22;10504;48.762;8.996;2022-08-03T00:10:59;18.60;99.90
20690;DHT22;10504;48.762;8.996;2022-08-03T00:13:25;18.60;99.90
20690;DHT22;10504;48.762;8.996;2022-08-03T00:15:51;18.50;99.90
20690;DHT22;10504;48.762;8.996;2022-08-03T00:18:18;18.50;99.90
20690;DHT22;10504;48.762;8.996;2022-08-03T00:20:44;18.50;99.90
20690;DHT22;10504;48.762;8.996;2022-08-03T00:23:10;18.50;99.90
20690;DHT22;10504;48.762;8.996;2022-08-03T00:25:36;18.50;99.90
20690;DHT22;10504;48.762;8.996;2022-08-03T00:28:03;18.50;99.90
20690;DHT22;10504;48.762;8.996;2022-08-03T00:30:30;18.40;99.90
20690;DHT22;10504;48.762;8.996;2022-08-03T00:32:55;18.40;99.90
20690;DHT22;10504;48.762;8.996;2022-08-03T00:35:22;18.40;99.90
20690;DHT22;10504;48.762;8.996;2022-08-03T00:37:47;18.40;99.90
20690;DHT22;10504;48.762;8.996;2022-08-03T00:40:15;18.40;99.90
20690;DHT22;10504;48.762;8.996;2022-08-03T00:42:53;18.30;99.90
20690;DHT22;10504;48.762;8.996;2022-08-03T00:45:22;18.30;99.90
20690;DHT22;10504;48.762;8.996;2022-08-03T00:47:48;18.30;99.90
20690;DHT22;10504;48.762;8.996;2022-08-03T00:50:15;18.30;99.90
20690;DHT22;10504;48.762;8.996;2022-08-03T00:52:41;18.30;99.90
20690;DHT22;10504;48.762;8.996;2022-08-03T00:55:08;18.30;99.90
20690;DHT22;10504;48.762;8.996;2022-08-03T00:57:34;18.30;99.90
20690;DHT22;10504;48.762;8.996;2022-08-03T01:00:00;18.30;99.90
20690;DHT22;10504;48.762;8.996;2022-08-03T01:02:27;18.30;99.90
20690;DHT22;10504;48.762;8.996;2022-08-03T01:04:54;18.30;99.90
20690;DHT22;10504;48.762;8.996;2022-08-03T01:13:33;18.30;99.90
20690;DHT22;10504;48.762;8.996;2022-08-03T01:16:24;18.30;99.90
20690;DHT22;10504;48.762;8.996;2022-08-03T01:18:56;18.20;99.90
20690;DHT22;10504;48.762;8.996;2022-08-03T01:21:28;18.20;99.90
20690;DHT22;10504;48.762;8.996;2022-08-03T01:24:21;18.20;99.90
20690;DHT22;10504;48.762;8.996;2022-08-03T01:27:11;18.20;99.90
20690;DHT22;10504;48.762;8.996;2022-08-03T01:30:08;18.20;99.90
20690;DHT22;10504;48.762;8.996;2022-08-03T01:32:40;18.20;99.90
20690;DHT22;10504;48.762;8.996;2022-08-03T01:35:13;18.10;99.90
20690;DHT22;10504;48.762;8.996;2022-08-03T01:37:44;18.10;99.90
20690;DHT22;10504;48.762;8.996;2022-08-03T01:40:13;18.10;99.90
20690;DHT22;10504;48.762;8.996;2022-08-03T01:42:41;18.10;99.90
20690;DHT22;10504;48.762;8.996;2022-08-03T01:45:09;18.00;99.90
20690;DHT22;10504;48.762;8.996;2022-08-03T01:47:37;18.00;99.90
20690;DHT22;10504;48.762;8.996;2022-08-03T01:50:04;18.00;99.90
20690;DHT22;10504;48.762;8.996;2022-08-03T01:52:31;18.00;99.90
20690;DHT22;10504;48.762;8.996;2022-08-03T01:54:58;18.00;99.90
20690;DHT22;10504;48.762;8.996;2022-08-03T01:57:26;18.00;99.90
20690;DHT22;10504;48.762;8.996;2022-08-03T01:59:55;18.00;99.90
20690;DHT22;10504;48.762;8.996;2022-08-03T02:02:22;18.00;99.90
20690;DHT22;10504;48.762;8.996;2022-08-03T02:04:49;18.00;99.90
20690;DHT22;10504;48.762;8.996;2022-08-03T02:07:17;18.00;99.90
20690;DHT22;10504;48.762;8.996;2022-08-03T02:09:48;17.90;99.90
20690;DHT22;10504;48.762;8.996;2022-08-03T02:12:15;17.90;99.90
20690;DHT22;10504;48.762;8.996;2022-08-03T02:14:43;17.90;99.90
20690;DHT22;10504;48.762;8.996;2022-08-03T02:17:11;17.90;99.90
20690;DHT22;10504;48.762;8.996;2022-08-03T02:19:39;17.90;99.90
20690;DHT22;10504;48.762;8.996;2022-08-03T02:22:09;17.90;99.90
20690;DHT22;10504;48.762;8.996;2022-08-03T02:24:35;17.90;99.90
20690;DHT22;10504;48.762;8.996;2022-08-03T02:27:03;17.80;99.90
20690;DHT22;10504;48.762;8.996;2022-08-03T02:29:33;17.90;99.90
20690;DHT22;10504;48.762;8.996;2022-08-03T02:32:01;17.80;99.90
20690;DHT22;10504;48.762;8.996;2022-08-03T02:34:28;17.90;99.90
20690;DHT22;10504;48.762;8.996;2022-08-03T02:36:57;17.90;99.90
20690;DHT22;10504;48.762;8.996;2022-08-03T02:39:30;17.90;99.90
20690;DHT22;10504;48.762;8.996;2022-08-03T02:41:59;17.80;99.90
20690;DHT22;10504;48.762;8.996;2022-08-03T02:44:30;17.80;99.90
20690;DHT22;10504;48.762;8.996;2022-08-03T02:47:05;17.70;99.90
20690;DHT22;10504;48.762;8.996;2022-08-03T02:49:32;17.70;99.90
20690;DHT22;10504;48.762;8.996;2022-08-03T02:51:59;17.80;99.90
20690;DHT22;10504;48.762;8.996;2022-08-03T02:54:26;17.80;99.90
20690;DHT22;10504;48.762;8.996;2022-08-03T02:56:53;17.70;99.90
20690;DHT22;10504;48.762;8.996;2022-08-03T02:59:22;17.70;99.90
20690;DHT22;10504;48.762;8.996;2022-08-03T03:01:49;17.70;99.90
20690;DHT22;10504;48.762;8.996;2022-08-03T03:04:16;17.70;99.90
20690;DHT22;10504;48.762;8.996;2022-08-03T03:06:43;17.70;99.90
20690;DHT22;10504;48.762;8.996;2022-08-03T03:09:09;17.70;99.90
20690;DHT22;10504;48.762;8.996;2022-08-03T03:11:37;17.70;99.90
20690;DHT22;10504;48.762;8.996;2022-08-03T03:14:03;17.70;99.90
20690;DHT22;10504;48.762;8.996;2022-08-03T03:16:30;17.60;99.90
20690;DHT22;10504;48.762;8.996;2022-08-03T03:18:57;17.60;99.90
20690;DHT22;10504;48.762;8.996;2022-08-03T03:21:24;17.60;99.90
20690;DHT22;10504;48.762;8.996;2022-08-03T03:23:51;17.60;99.90
20690;DHT22;10504;48.762;8.996;2022-08-03T03:26:18;17.60;99.90
20690;DHT22;10504;48.762;8.996;2022-08-03T03:28:44;17.60;99.90
20690;DHT22;10504;48.762;8.996;2022-08-03T03:31:10;17.60;99.90
20690;DHT22;10504;48.762;8.996;2022-08-03T03:33:37;17.60;99.90
20690;DHT22;10504;48.762;8.996;2022-08-03T03:36:04;17.60;99.90
20690;DHT22;10504;48.762;8.996;2022-08-03T03:38:31;17.60;99.90
20690;DHT22;10504;48.762;8.996;2022-08-03T03:40:57;17.60;99.90
20690;DHT22;10504;48.762;8.996;2022-08-03T03:43:23;17.60;99.90
20690;DHT22;10504;48.762;8.996;2022-08-03T03:45:50;17.50;99.90
20690;DHT22;10504;48.762;8.996;2022-08-03T03:48:17;17.50;99.90
20690;DHT22;10504;48.762;8.996;2022-08-03T03:50:43;17.50;99.90
20690;DHT22;10504;48.762;8.996;2022-08-03T03:53:10;17.50;99.90
20690;DHT22;10504;48.762;8.996;2022-08-03T03:55:36;17.50;99.90
20690;DHT22;10504;48.762;8.996;2022-08-03T03:58:03;17.50;99.90
20690;DHT22;10504;48.762;8.996;2022-08-03T04:00:29;17.50;99.90
20690;DHT22;10504;48.762;8.996;2022-08-03T04:02:55;17.50;99.90
20690;DHT22;10504;48.762;8.996;2022-08-03T04:05:21;17.50;99.90
20690;DHT22;10504;48.762;8.996;2022-08-03T04:08:06;17.50;99.90
20690;DHT22;10504;48.762;8.996;2022-08-03T04:11:13;17.50;99.90
20690;DHT22;10504;48.762;8.996;2022-08-03T04:14:23;17.50;99.90
20690;DHT22;10504;48.762;8.996;2022-08-03T04:16:55;17.50;99.90
20690;DHT22;10504;48.762;8.996;2022-08-03T04:22:28;17.50;99.90
20690;DHT22;10504;48.762;8.996;2022-08-03T04:25:02;17.40;99.90
20690;DHT22;10504;48.762;8.996;2022-08-03T04:27:33;17.40;99.90
20690;DHT22;10504;48.762;8.996;2022-08-03T04:30:03;17.50;99.90
20690;DHT22;10504;48.762;8.996;2022-08-03T04:32:29;17.50;99.90
20690;DHT22;10504;48.762;8.996;2022-08-03T04:34:56;17.50;99.90
20690;DHT22;10504;48.762;8.996;2022-08-03T04:37:38;17.50;99.90
20690;DHT22;10504;48.762;8.996;2022-08-03T04:40:07;17.50;99.90
20690;DHT22;10504;48.762;8.996;2022-08-03T04:42:34;17.50;99.90
20690;DHT22;10504;48.762;8.996;2022-08-03T04:45:03;17.60;99.90
20690;DHT22;10504;48.762;8.996;2022-08-03T04:47:32;17.50;99.90
20690;DHT22;10504;48.762;8.996;2022-08-03T04:50:00;17.60;99.90
20690;DHT22;10504;48.762;8.996;2022-08-03T04:52:26;17.60;99.90
20690;DHT22;10504;48.762;8.996;2022-08-03T04:54:52;17.60;99.90
20690;DHT22;10504;48.762;8.996;2022-08-03T04:57:18;17.60;99.90
20690;DHT22;10504;48.762;8.996;2022-08-03T04:59:44;17.50;99.90
20690;DHT22;10504;48.762;8.996;2022-08-03T05:02:09;17.50;99.90
20690;DHT22;10504;48.762;8.996;2022-08-03T05:04:35;17.50;99.90
20690;DHT22;10504;48.762;8.996;2022-08-03T05:07:02;17.60;99.90
20690;DHT22;10504;48.762;8.996;2022-08-03T05:09:28;17.60;99.90
20690;DHT22;10504;48.762;8.996;2022-08-03T05:11:54;17.60;99.90
20690;DHT22;10504;48.762;8.996;2022-08-03T05:14:20;17.60;99.90
20690;DHT22;10504;48.762;8.996;2022-08-03T05:16:45;17.60;99.90
20690;DHT22;10504;48.762;8.996;2022-08-03T05:19:11;17.60;99.90
20690;DHT22;10504;48.762;8.996;2022-08-03T05:21:37;17.70;99.90
20690;DHT22;10504;48.762;8.996;2022-08-03T05:24:03;17.70;99.90
20690;DHT22;10504;48.762;8.996;2022-08-03T05:26:29;17.80;99.90
20690;DHT22;10504;48.762;8.996;2022-08-03T05:28:54;17.80;99.90
20690;DHT22;10504;48.762;8.996;2022-08-03T05:31:20;17.70;99.90
20690;DHT22;10504;48.762;8.996;2022-08-03T05:33:46;17.80;99.90
20690;DHT22;10504;48.762;8.996;2022-08-03T05:36:13;17.80;99.90
20690;DHT22;10504;48.762;8.996;2022-08-03T05:38:39;17.80;99.90
20690;DHT22;10504;48.762;8.996;2022-08-03T05:41:05;17.80;99.90
20690;DHT22;10504;48.762;8.996;2022-08-03T05:43:31;17.90;99.90
20690;DHT22;10504;48.762;8.996;2022-08-03T05:45:57;17.90;99.90
20690;DHT22;10504;48.762;8.996;2022-08-03T05:48:25;17.90;99.90
20690;DHT22;10504;48.762;8.996;2022-08-03T05:50:50;17.90;99.90
20690;DHT22;10504;48.762;8.996;2022-08-03T05:53:16;17.90;99.90
20690;DHT22;10504;48.762;8.996;2022-08-03T05:55:42;18.00;99.90
20690;DHT22;10504;48.762;8.996;2022-08-03T05:58:07;18.00;99.90
20690;DHT22;10504;48.762;8.996;2022-08-03T06:00:33;18.10;99.90
20690;DHT22;10504;48.762;8.996;2022-08-03T06:02:59;18.10;99.90
20690;DHT22;10504;48.762;8.996;2022-08-03T06:05:25;18.10;99.90
20690;DHT22;10504;48.762;8.996;2022-08-03T06:07:52;18.10;99.90
20690;DHT22;10504;48.762;8.996;2022-08-03T06:10:18;18.20;99.90
20690;DHT22;10504;48.762;8.996;2022-08-03T06:12:44;18.20;99.90
20690;DHT22;10504;48.762;8.996;2022-08-03T06:15:14;18.20;99.90
20690;DHT22;10504;48.762;8.996;2022-08-03T06:17:47;18.30;99.90
20690;DHT22;10504;48.762;8.996;2022-08-03T06:20:16;18.30;99.90
20690;DHT22;10504;48.762;8.996;2022-08-03T06:22:42;18.30;99.90
20690;DHT22;10504;48.762;8.996;2022-08-03T06:25:08;18.40;99.90
20690;DHT22;10504;48.762;8.996;2022-08-03T06:27:34;18.40;99.90
20690;DHT22;10504;48.762;8.996;2022-08-03T06:30:01;18.50;99.90
20690;DHT22;10504;48.762;8.996;2022-08-03T06:32:26;18.50;99.90
20690;DHT22;10504;48.762;8.996;2022-08-03T06:34:52;18.50;99.90
20690;DHT22;10504;48.762;8.996;2022-08-03T06:37:18;18.60;99.90
20690;DHT22;10504;48.762;8.996;2022-08-03T06:39:43;18.60;99.90
20690;DHT22;10504;48.762;8.996;2022-08-03T06:42:09;18.70;99.90
20690;DHT22;10504;48.762;8.996;2022-08-03T06:44:35;18.70;99.90
20690;DHT22;10504;48.762;8.996;2022-08-03T06:47:03;18.80;99.90
20690;DHT22;10504;48.762;8.996;2022-08-03T06:49:28;18.80;99.90
20690;DHT22;10504;48.762;8.996;2022-08-03T06:51:54;18.80;99.90
20690;DHT22;10504;48.762;8.996;2022-08-03T06:54:21;18.90;99.90
20690;DHT22;10504;48.762;8.996;2022-08-03T06:56:47;19.00;99.90
20690;DHT22;10504;48.762;8.996;2022-08-03T06:59:13;19.10;99.90
20690;DHT22;10504;48.762;8.996;2022-08-03T07:01:38;19.10;99.90
20690;DHT22;10504;48.762;8.996;2022-08-03T07:04:04;19.10;99.90
20690;DHT22;10504;48.762;8.996;2022-08-03T07:06:30;19.20;99.90
20690;DHT22;10504;48.762;8.996;2022-08-03T07:08:56;19.20;99.90
20690;DHT22;10504;48.762;8.996;2022-08-03T07:11:22;19.30;99.90
20690;DHT22;10504;48.762;8.996;2022-08-03T07:13:47;19.30;99.90
20690;DHT22;10504;48.762;8.996;2022-08-03T07:16:13;19.40;99.90
20690;DHT22;10504;48.762;8.996;2022-08-03T07:18:39;19.40;99.90
20690;DHT22;10504;48.762;8.996;2022-08-03T07:21:05;19.40;99.90
20690;DHT22;10504;48.762;8.996;2022-08-03T07:23:33;19.50;99.90
20690;DHT22;10504;48.762;8.996;2022-08-03T07:25:59;19.50;99.90
20690;DHT22;10504;48.762;8.996;2022-08-03T07:28:25;19.50;99.90
20690;DHT22;10504;48.762;8.996;2022-08-03T07:30:50;19.60;99.90
20690;DHT22;10504;48.762;8.996;2022-08-03T07:33:16;19.60;99.90
20690;DHT22;10504;48.762;8.996;2022-08-03T07:35:42;19.70;99.90
20690;DHT22;10504;48.762;8.996;2022-08-03T07:38:08;19.70;99.90
20690;DHT22;10504;48.762;8.996;2022-08-03T07:40:33;19.70;99.90
20690;DHT22;10504;48.762;8.996;2022-08-03T07:42:59;19.80;99.90
20690;DHT22;10504;48.762;8.996;2022-08-03T07:45:26;19.80;99.90
20690;DHT22;10504;48.762;8.996;2022-08-03T07:47:52;19.90;99.90
20690;DHT22;10504;48.762;8.996;2022-08-03T07:50:17;20.00;99.90
20690;DHT22;10504;48.762;8.996;2022-08-03T07:52:43;20.00;99.90
20690;DHT22;10504;48.762;8.996;2022-08-03T07:55:24;20.10;99.90
20690;DHT22;10504;48.762;8.996;2022-08-03T08:00:28;20.20;99.90
20690;DHT22;10504;48.762;8.996;2022-08-03T08:02:54;20.30;99.90
20690;DHT22;10504;48.762;8.996;2022-08-03T08:05:19;20.30;99.90
20690;DHT22;10504;48.762;8.996;2022-08-03T08:07:45;20.30;99.90
20690;DHT22;10504;48.762;8.996;2022-08-03T08:10:11;20.40;99.90
20690;DHT22;10504;48.762;8.996;2022-08-03T08:12:38;20.40;99.90
20690;DHT22;10504;48.762;8.996;2022-08-03T08:15:05;20.40;99.90
20690;DHT22;10504;48.762;8.996;2022-08-03T08:20:15;20.50;99.90
20690;DHT22;10504;48.762;8.996;2022-08-03T08:22:41;20.60;99.90
20690;DHT22;10504;48.762;8.996;2022-08-03T08:25:07;20.70;99.90
20690;DHT22;10504;48.762;8.996;2022-08-03T08:27:33;20.80;99.90
20690;DHT22;10504;48.762;8.996;2022-08-03T08:30:05;20.90;99.90
20690;DHT22;10504;48.762;8.996;2022-08-03T08:32:31;21.00;99.90
20690;DHT22;10504;48.762;8.996;2022-08-03T08:34:57;21.00;99.90
20690;DHT22;10504;48.762;8.996;2022-08-03T08:37:23;21.00;99.90
20690;DHT22;10504;48.762;8.996;2022-08-03T08:39:48;21.20;99.90
20690;DHT22;10504;48.762;8.996;2022-08-03T08:42:14;21.20;99.90
20690;DHT22;10504;48.762;8.996;2022-08-03T08:44:40;21.20;99.90
20690;DHT22;10504;48.762;8.996;2022-08-03T08:47:07;21.20;99.90
20690;DHT22;10504;48.762;8.996;2022-08-03T08:49:35;21.30;99.90
20690;DHT22;10504;48.762;8.996;2022-08-03T08:52:04;21.30;99.90
20690;DHT22;10504;48.762;8.996;2022-08-03T08:54:32;21.30;99.90
20690;DHT22;10504;48.762;8.996;2022-08-03T08:57:02;21.30;99.90
20690;DHT22;10504;48.762;8.996;2022-08-03T08:59:31;21.40;99.90
20690;DHT22;10504;48.762;8.996;2022-08-03T09:01:59;21.50;99.90
20690;DHT22;10504;48.762;8.996;2022-08-03T09:04:24;21.60;99.90
20690;DHT22;10504;48.762;8.996;2022-08-03T09:06:51;21.60;99.90
20690;DHT22;10504;48.762;8.996;2022-08-03T09:09:17;21.70;99.90
20690;DHT22;10504;48.762;8.996;2022-08-03T09:11:43;21.80;99.90
20690;DHT22;10504;48.762;8.996;2022-08-03T09:14:09;21.90;99.90
20690;DHT22;10504;48.762;8.996;2022-08-03T09:16:36;21.90;99.90
20690;DHT22;10504;48.762;8.996;2022-08-03T09:19:12;22.00;99.90
20690;DHT22;10504;48.762;8.996;2022-08-03T09:21:39;22.00;99.90
20690;DHT22;10504;48.762;8.996;2022-08-03T09:24:05;22.00;99.90
20690;DHT22;10504;48.762;8.996;2022-08-03T09:26:35;22.00;99.90
20690;DHT22;10504;48.762;8.996;2022-08-03T09:29:06;22.00;99.90
20690;DHT22;10504;48.762;8.996;2022-08-03T09:31:33;22.00;99.90
20690;DHT22;10504;48.762;8.996;2022-08-03T09:34:05;22.10;99.90
20690;DHT22;10504;48.762;8.996;2022-08-03T09:36:42;22.10;99.90
20690;DHT22;10504;48.762;8.996;2022-08-03T09:39:15;22.10;99.90
20690;DHT22;10504;48.762;8.996;2022-08-03T09:42:05;22.20;99.90
20690;DHT22;10504;48.762;8.996;2022-08-03T09:44:42;22.20;99.90
20690;DHT22;10504;48.762;8.996;2022-08-03T09:47:09;22.30;99.90
20690;DHT22;10504;48.762;8.996;2022-08-03T09:49:36;22.40;99.90
20690;DHT22;10504;48.762;8.996;2022-08-03T09:52:13;22.40;99.90
20690;DHT22;10504;48.762;8.996;2022-08-03T09:54:40;22.50;99.90
20690;DHT22;10504;48.762;8.996;2022-08-03T09:57:06;22.50;99.90
20690;DHT22;10504;48.762;8.996;2022-08-03T09:59:32;22.50;99.90
20690;DHT22;10504;48.762;8.996;2022-08-03T10:01:58;22.60;99.90
20690;DHT22;10504;48.762;8.996;2022-08-03T10:04:24;22.60;99.90
20690;DHT22;10504;48.762;8.996;2022-08-03T10:09:31;22.70;99.90
20690;DHT22;10504;48.762;8.996;2022-08-03T10:11:57;22.80;99.90
20690;DHT22;10504;48.762;8.996;2022-08-03T10:14:31;22.90;99.90
20690;DHT22;10504;48.762;8.996;2022-08-03T10:16:57;23.00;99.90
20690;DHT22;10504;48.762;8.996;2022-08-03T10:19:23;23.00;99.90
20690;DHT22;10504;48.762;8.996;2022-08-03T10:21:54;23.10;99.90
20690;DHT22;10504;48.762;8.996;2022-08-03T10:24:27;23.20;99.90
20690;DHT22;10504;48.762;8.996;2022-08-03T10:27:06;23.20;99.90
20690;DHT22;10504;48.762;8.996;2022-08-03T10:29:54;23.40;99.90
20690;DHT22;10504;48.762;8.996;2022-08-03T10:32:42;23.50;99.90
20690;DHT22;10504;48.762;8.996;2022-08-03T10:35:13;23.70;99.90
20690;DHT22;10504;48.762;8.996;2022-08-03T10:37:49;23.80;99.90
20690;DHT22;10504;48.762;8.996;2022-08-03T10:40:20;24.00;99.90
20690;DHT22;10504;48.762;8.996;2022-08-03T10:42:48;24.30;99.90
20690;DHT22;10504;48.762;8.996;2022-08-03T10:45:20;24.50;99.90
20690;DHT22;10504;48.762;8.996;2022-08-03T10:47:49;24.80;99.90
20690;DHT22;10504;48.762;8.996;2022-08-03T10:50:16;25.00;99.90
20690;DHT22;10504;48.762;8.996;2022-08-03T10:53:00;25.20;99.90
20690;DHT22;10504;48.762;8.996;2022-08-03T10:58:28;25.70;99.90
20690;DHT22;10504;48.762;8.996;2022-08-03T11:01:00;25.90;99.90
20690;DHT22;10504;48.762;8.996;2022-08-03T11:03:26;26.10;99.90
20690;DHT22;10504;48.762;8.996;2022-08-03T11:05:52;26.30;99.90
20690;DHT22;10504;48.762;8.996;2022-08-03T11:08:29;26.40;99.90
20690;DHT22;10504;48.762;8.996;2022-08-03T11:10:58;26.40;99.90
20690;DHT22;10504;48.762;8.996;2022-08-03T11:13:25;26.60;99.90
20690;DHT22;10504;48.762;8.996;2022-08-03T11:15:54;26.70;99.90
20690;DHT22;10504;48.762;8.996;2022-08-03T11:18:20;26.80;99.90
20690;DHT22;10504;48.762;8.996;2022-08-03T11:20:55;26.90;99.90
20690;DHT22;10504;48.762;8.996;2022-08-03T11:23:45;26.90;99.90
20690;DHT22;10504;48.762;8.996;2022-08-03T11:26:16;26.80;99.90
20690;DHT22;10504;48.762;8.996;2022-08-03T11:28:44;26.80;99.90
20690;DHT22;10504;48.762;8.996;2022-08-03T11:34:11;26.70;99.90
20690;DHT22;10504;48.762;8.996;2022-08-03T11:39:45;26.70;99.90
20690;DHT22;10504;48.762;8.996;2022-08-03T11:44:51;26.70;99.90
20690;DHT22;10504;48.762;8.996;2022-08-03T11:47:17;26.70;99.90
20690;DHT22;10504;48.762;8.996;2022-08-03T11:49:49;26.70;99.90
20690;DHT22;10504;48.762;8.996;2022-08-03T11:52:16;26.60;99.90
20690;DHT22;10504;48.762;8.996;2022-08-03T11:54:42;26.70;99.90
20690;DHT22;10504;48.762;8.996;2022-08-03T11:57:08;26.70;99.90
20690;DHT22;10504;48.762;8.996;2022-08-03T11:59:35;26.70;99.90
20690;DHT22;10504;48.762;8.996;2022-08-03T12:02:12;26.80;99.90
20690;DHT22;10504;48.762;8.996;2022-08-03T12:04:57;26.90;99.90
20690;DHT22;10504;48.762;8.996;2022-08-03T12:07:27;27.00;99.90
20690;DHT22;10504;48.762;8.996;2022-08-03T12:12:30;27.00;99.90
20690;DHT22;10504;48.762;8.996;2022-08-03T12:14:56;27.10;99.90
20690;DHT22;10504;48.762;8.996;2022-08-03T12:17:23;27.20;99.90
20690;DHT22;10504;48.762;8.996;2022-08-03T12:19:48;27.40;99.90
20690;DHT22;10504;48.762;8.996;2022-08-03T12:22:14;27.50;99.90
20690;DHT22;10504;48.762;8.996;2022-08-03T12:24:44;27.50;99.90
20690;DHT22;10504;48.762;8.996;2022-08-03T12:27:10;27.70;99.90
20690;DHT22;10504;48.762;8.996;2022-08-03T12:29:36;27.80;99.90
20690;DHT22;10504;48.762;8.996;2022-08-03T12:32:02;27.90;99.90
20690;DHT22;10504;48.762;8.996;2022-08-03T12:34:47;28.00;99.90
20690;DHT22;10504;48.762;8.996;2022-08-03T12:37:17;28.20;99.90
20690;DHT22;10504;48.762;8.996;2022-08-03T12:39:58;28.30;99.90
20690;DHT22;10504;48.762;8.996;2022-08-03T12:42:36;28.40;99.90
20690;DHT22;10504;48.762;8.996;2022-08-03T12:45:18;28.60;99.90
20690;DHT22;10504;48.762;8.996;2022-08-03T12:47:55;28.70;99.90
20690;DHT22;10504;48.762;8.996;2022-08-03T12:50:26;28.70;99.90
20690;DHT22;10504;48.762;8.996;2022-08-03T12:52:52;28.70;99.90
20690;DHT22;10504;48.762;8.996;2022-08-03T12:55:22;28.80;99.90
20690;DHT22;10504;48.762;8.996;2022-08-03T12:57:48;28.90;99.90
20690;DHT22;10504;48.762;8.996;2022-08-03T13:00:16;29.20;99.90
20690;DHT22;10504;48.762;8.996;2022-08-03T13:02:43;29.30;97.60
20690;DHT22;10504;48.762;8.996;2022-08-03T13:05:14;29.30;96.50
20690;DHT22;10504;48.762;8.996;2022-08-03T13:07:43;29.30;98.10
20690;DHT22;10504;48.762;8.996;2022-08-03T13:10:26;29.20;98.80
20690;DHT22;10504;48.762;8.996;2022-08-03T13:12:54;29.20;94.80
20690;DHT22;10504;48.762;8.996;2022-08-03T13:15:26;29.20;93.30
20690;DHT22;10504;48.762;8.996;2022-08-03T13:17:57;29.10;95.30
20690;DHT22;10504;48.762;8.996;2022-08-03T13:20:23;29.10;94.50
20690;DHT22;10504;48.762;8.996;2022-08-03T13:22:51;29.30;92.40
20690;DHT22;10504;48.762;8.996;2022-08-03T13:25:18;29.20;92.50
20690;DHT22;10504;48.762;8.996;2022-08-03T13:27:46;29.30;91.80
20690;DHT22;10504;48.762;8.996;2022-08-03T13:30:13;29.40;93.40
20690;DHT22;10504;48.762;8.996;2022-08-03T13:32:39;29.50;96.60
20690;DHT22;10504;48.762;8.996;2022-08-03T13:35:08;29.50;91.20
20690;DHT22;10504;48.762;8.996;2022-08-03T13:37:38;29.60;91.20
20690;DHT22;10504;48.762;8.996;2022-08-03T13:40:07;29.50;90.80
20690;DHT22;10504;48.762;8.996;2022-08-03T13:42:34;29.50;88.60
20690;DHT22;10504;48.762;8.996;2022-08-03T13:45:08;29.40;89.30
20690;DHT22;10504;48.762;8.996;2022-08-03T13:47:41;29.30;88.00
20690;DHT22;10504;48.762;8.996;2022-08-03T13:50:11;29.40;88.30
20690;DHT22;10504;48.762;8.996;2022-08-03T13:52:42;29.40;85.50
20690;DHT22;10504;48.762;8.996;2022-08-03T13:55:24;29.40;85.80
20690;DHT22;10504;48.762;8.996;2022-08-03T13:57:53;29.50;85.20
20690;DHT22;10504;48.762;8.996;2022-08-03T14:00:23;29.50;85.20
20690;DHT22;10504;48.762;8.996;2022-08-03T14:03:00;29.60;85.90
20690;DHT22;10504;48.762;8.996;2022-08-03T14:05:38;29.70;87.00
20690;DHT22;10504;48.762;8.996;2022-08-03T14:08:07;29.70;86.10
20690;DHT22;10504;48.762;8.996;2022-08-03T14:10:38;29.70;86.40
20690;DHT22;10504;48.762;8.996;2022-08-03T14:13:04;29.80;90.60
20690;DHT22;10504;48.762;8.996;2022-08-03T14:15:30;29.80;91.90
20690;DHT22;10504;48.762;8.996;2022-08-03T14:17:57;29.90;92.10
20690;DHT22;10504;48.762;8.996;2022-08-03T14:20:26;29.90;89.80
20690;DHT22;10504;48.762;8.996;2022-08-03T14:22:53;29.80;86.20
20690;DHT22;10504;48.762;8.996;2022-08-03T14:25:20;29.70;90.40
20690;DHT22;10504;48.762;8.996;2022-08-03T14:27:47;29.70;85.00
20690;DHT22;10504;48.762;8.996;2022-08-03T14:30:14;29.70;85.00
20690;DHT22;10504;48.762;8.996;2022-08-03T14:32:41;29.70;83.20
20690;DHT22;10504;48.762;8.996;2022-08-03T14:35:08;29.50;85.00
20690;DHT22;10504;48.762;8.996;2022-08-03T14:37:35;29.50;85.90
20690;DHT22;10504;48.762;8.996;2022-08-03T14:40:02;29.60;88.00
20690;DHT22;10504;48.762;8.996;2022-08-03T14:42:28;29.60;87.50
20690;DHT22;10504;48.762;8.996;2022-08-03T14:44:55;29.60;89.80
20690;DHT22;10504;48.762;8.996;2022-08-03T14:47:21;29.60;91.90
20690;DHT22;10504;48.762;8.996;2022-08-03T14:49:47;29.50;93.20
20690;DHT22;10504;48.762;8.996;2022-08-03T14:52:15;29.40;91.90
20690;DHT22;10504;48.762;8.996;2022-08-03T14:54:41;29.30;92.60
20690;DHT22;10504;48.762;8.996;2022-08-03T14:57:15;29.30;92.60
20690;DHT22;10504;48.762;8.996;2022-08-03T14:59:41;29.20;93.30
20690;DHT22;10504;48.762;8.996;2022-08-03T15:02:08;29.20;92.50
20690;DHT22;10504;48.762;8.996;2022-08-03T15:04:36;29.20;91.20
20690;DHT22;10504;48.762;8.996;2022-08-03T15:07:03;29.20;91.30
20690;DHT22;10504;48.762;8.996;2022-08-03T15:09:31;29.10;90.70
20690;DHT22;10504;48.762;8.996;2022-08-03T15:11:59;29.10;91.60
20690;DHT22;10504;48.762;8.996;2022-08-03T15:14:26;29.00;93.40
20690;DHT22;10504;48.762;8.996;2022-08-03T15:16:57;29.00;89.80
20690;DHT22;10504;48.762;8.996;2022-08-03T15:19:27;28.90;87.70
20690;DHT22;10504;48.762;8.996;2022-08-03T15:21:54;28.90;87.30
20690;DHT22;10504;48.762;8.996;2022-08-03T15:24:22;28.80;89.70
20690;DHT22;10504;48.762;8.996;2022-08-03T15:26:51;28.80;90.60
20690;DHT22;10504;48.762;8.996;2022-08-03T15:29:19;28.80;90.10
20690;DHT22;10504;48.762;8.996;2022-08-03T15:31:48;28.70;89.90
20690;DHT22;10504;48.762;8.996;2022-08-03T15:34:14;28.70;91.90
20690;DHT22;10504;48.762;8.996;2022-08-03T15:36:42;28.60;91.50
20690;DHT22;10504;48.762;8.996;2022-08-03T15:39:09;28.60;91.30
20690;DHT22;10504;48.762;8.996;2022-08-03T15:41:36;28.60;91.90
20690;DHT22;10504;48.762;8.996;2022-08-03T15:44:02;28.70;89.10
20690;DHT22;10504;48.762;8.996;2022-08-03T15:46:30;28.70;88.10
20690;DHT22;10504;48.762;8.996;2022-08-03T15:48:57;28.70;90.50
20690;DHT22;10504;48.762;8.996;2022-08-03T15:51:23;28.80;91.50
20690;DHT22;10504;48.762;8.996;2022-08-03T15:53:50;28.70;91.90
20690;DHT22;10504;48.762;8.996;2022-08-03T15:56:20;28.60;92.10
20690;DHT22;10504;48.762;8.996;2022-08-03T15:58:51;28.60;93.10
20690;DHT22;10504;48.762;8.996;2022-08-03T16:01:18;28.50;93.40
20690;DHT22;10504;48.762;8.996;2022-08-03T16:03:45;28.60;93.30
20690;DHT22;10504;48.762;8.996;2022-08-03T16:06:12;28.60;93.50
20690;DHT22;10504;48.762;8.996;2022-08-03T16:08:41;28.60;94.20
20690;DHT22;10504;48.762;8.996;2022-08-03T16:11:08;28.50;93.20